createdAt,value
2022-11-25T00:00:01.091Z,94.83
2022-11-25T00:02:28.983Z,95.60
2022-11-25T00:04:59.148Z,95.81
2022-11-25T00:07:30.950Z,96.25
2022-11-25T00:09:59.030Z,95.86
2022-11-25T00:12:28.424Z,95.71
2022-11-25T00:15:00.127Z,95.60
2022-11-25T00:17:27.937Z,95.86
2022-11-25T00:19:56.416Z,96.36
2022-11-25T00:22:24.135Z,96.19
2022-11-25T00:24:51.966Z,96.13
2022-11-25T00:27:19.922Z,96.52
2022-11-25T00:29:47.893Z,96.41
2022-11-25T00:32:17.241Z,96.16
2022-11-25T00:34:45.248Z,96.63
2022-11-25T00:37:13.243Z,96.36
2022-11-25T00:39:45.250Z,96.67
2022-11-25T00:42:30.572Z,96.58
2022-11-25T00:44:58.528Z,96.06
2022-11-25T00:47:29.560Z,95.96
2022-11-25T00:49:59.265Z,96.44
2022-11-25T00:52:28.366Z,95.78
2022-11-25T00:54:57.596Z,96.27
2022-11-25T00:57:25.661Z,95.69
2022-11-25T00:59:58.532Z,95.40
2022-11-25T01:02:29.056Z,95.97
2022-11-25T01:04:58.454Z,95.63
2022-11-25T01:07:26.031Z,95.75
2022-11-25T01:09:53.649Z,95.90
2022-11-25T01:12:21.128Z,96.51
2022-11-25T01:14:48.707Z,96.38
2022-11-25T01:17:16.624Z,96.54
2022-11-25T01:19:45.700Z,96.82
2022-11-25T01:22:13.193Z,97.52
2022-11-25T01:24:40.737Z,97.22
2022-11-25T01:27:08.235Z,97.15
2022-11-25T01:29:35.725Z,96.89
2022-11-25T01:32:03.347Z,96.46
2022-11-25T01:34:32.456Z,96.59
2022-11-25T01:37:01.309Z,96.33
2022-11-25T01:39:32.783Z,96.49
2022-11-25T01:42:00.823Z,96.68
2022-11-25T01:44:29.538Z,96.85
2022-11-25T01:47:01.607Z,97.10
2022-11-25T01:49:34.605Z,96.74
2022-11-25T01:52:10.590Z,96.51
2022-11-25T01:54:42.007Z,96.68
2022-11-25T01:57:12.930Z,96.33
2022-11-25T01:59:45.986Z,96.86
2022-11-25T02:02:14.441Z,97.15
2022-11-25T02:04:43.158Z,96.23
2022-11-25T02:07:15.941Z,96.62
2022-11-25T02:09:43.834Z,96.75
2022-11-25T02:12:11.757Z,96.34
2022-11-25T02:14:39.468Z,96.40
2022-11-25T02:17:07.203Z,96.41
2022-11-25T02:19:44.419Z,96.18
2022-11-25T02:22:22.629Z,96.29
2022-11-25T02:24:52.925Z,96.01
2022-11-25T02:27:24.586Z,96.38
2022-11-25T02:29:52.736Z,96.65
2022-11-25T02:32:23.084Z,96.87
2022-11-25T02:34:50.880Z,96.98
2022-11-25T02:37:20.415Z,96.84
2022-11-25T02:39:49.131Z,96.45
2022-11-25T02:42:18.085Z,96.59
2022-11-25T02:44:48.270Z,96.62
2022-11-25T02:47:16.129Z,96.94
2022-11-25T02:49:43.629Z,97.16
2022-11-25T02:52:11.163Z,97.37
2022-11-25T02:54:38.793Z,97.65
2022-11-25T02:57:06.360Z,97.59
2022-11-25T02:59:33.869Z,97.46
2022-11-25T03:02:02.931Z,97.30
2022-11-25T03:04:30.431Z,97.37
2022-11-25T03:06:57.953Z,97.37
2022-11-25T03:09:25.503Z,97.35
2022-11-25T03:12:10.554Z,97.45
2022-11-25T03:14:38.133Z,97.85
2022-11-25T03:17:07.068Z,98.52
2022-11-25T03:19:34.568Z,98.21
2022-11-25T03:22:02.100Z,98.28
2022-11-25T03:24:29.740Z,98.38
2022-11-25T03:26:57.300Z,98.41
2022-11-25T03:29:26.728Z,98.37
2022-11-25T03:31:54.280Z,98.39
2022-11-25T03:34:23.141Z,98.43
2022-11-25T03:36:50.757Z,98.85
2022-11-25T03:39:18.310Z,98.82
2022-11-25T03:41:45.845Z,98.96
2022-11-25T03:44:13.392Z,98.84
2022-11-25T03:46:40.921Z,98.84
2022-11-25T03:49:08.446Z,98.96
2022-11-25T03:51:37.623Z,99.31
2022-11-25T03:54:05.350Z,99.48
2022-11-25T03:56:32.930Z,99.15
2022-11-25T03:59:00.405Z,99.17
2022-11-25T04:01:27.988Z,98.95
2022-11-25T04:03:55.585Z,99.25
2022-11-25T04:06:23.929Z,99.51
2022-11-25T04:08:52.882Z,99.56
2022-11-25T04:11:20.393Z,99.43
2022-11-25T04:13:46.955Z,99.74
2022-11-25T04:16:21.739Z,99.88
2022-11-25T04:18:49.521Z,99.20
2022-11-25T04:21:17.887Z,99.92
2022-11-25T04:23:45.463Z,99.74
2022-11-25T04:26:14.335Z,100.00
2022-11-25T04:28:41.874Z,99.96
2022-11-25T04:31:10.115Z,99.70
2022-11-25T04:33:37.697Z,100.00
2022-11-25T04:36:05.676Z,100.00
2022-11-25T04:38:33.210Z,100.00
2022-11-25T04:41:00.725Z,100.00
2022-11-25T04:43:29.679Z,100.00
2022-11-25T04:46:26.905Z,100.00
2022-11-25T04:48:44.806Z,100.00
2022-11-25T04:51:12.397Z,99.91
2022-11-25T04:53:39.954Z,100.00
2022-11-25T04:56:08.160Z,99.88
2022-11-25T04:58:54.503Z,99.88
2022-11-25T05:01:22.123Z,99.47
2022-11-25T05:03:56.020Z,99.05
2022-11-25T05:06:23.820Z,99.52
2022-11-25T05:08:51.480Z,99.91
2022-11-25T05:11:19.319Z,99.18
2022-11-25T05:13:48.344Z,99.64
2022-11-25T05:16:15.880Z,99.52
2022-11-25T05:18:43.378Z,99.32
2022-11-25T05:21:11.160Z,99.73
2022-11-25T05:23:38.666Z,100.00
2022-11-25T05:26:06.435Z,99.64
2022-11-25T05:28:33.994Z,100.00
2022-11-25T05:31:02.958Z,100.00
2022-11-25T05:33:30.602Z,99.54
2022-11-25T05:35:59.624Z,99.40
2022-11-25T05:38:27.758Z,99.67
2022-11-25T05:40:55.610Z,99.56
2022-11-25T05:43:23.186Z,99.41
2022-11-25T05:45:50.777Z,99.62
2022-11-25T05:48:19.718Z,99.79
2022-11-25T05:50:47.271Z,99.66
2022-11-25T05:53:17.186Z,99.77
2022-11-25T05:55:44.858Z,99.33
2022-11-25T05:58:12.389Z,99.75
2022-11-25T06:00:39.925Z,99.92
2022-11-25T06:03:07.564Z,99.87
2022-11-25T06:05:36.953Z,99.87
2022-11-25T06:08:04.809Z,99.86
2022-11-25T06:10:32.366Z,100.00
2022-11-25T06:13:00.033Z,100.00
2022-11-25T06:15:27.534Z,100.00
2022-11-25T06:17:55.076Z,100.00
2022-11-25T06:20:22.631Z,100.00
2022-11-25T06:22:51.503Z,99.91
2022-11-25T06:25:19.248Z,99.54
2022-11-25T06:28:11.492Z,99.40
2022-11-25T06:30:34.282Z,99.53
2022-11-25T06:33:01.798Z,99.78
2022-11-25T06:35:29.311Z,99.55
2022-11-25T06:37:59.133Z,99.40
2022-11-25T06:40:26.872Z,99.52
2022-11-25T06:42:54.364Z,99.87
2022-11-25T06:45:21.874Z,99.88
2022-11-25T06:47:49.420Z,99.72
2022-11-25T06:50:17.054Z,99.75
2022-11-25T06:52:44.544Z,99.89
2022-11-25T06:55:13.419Z,99.87
2022-11-25T06:57:40.914Z,99.71
2022-11-25T07:00:09.692Z,100.00
2022-11-25T07:02:42.867Z,99.20
2022-11-25T07:05:12.957Z,99.14
2022-11-25T07:07:40.597Z,99.82
2022-11-25T07:10:09.547Z,99.98
2022-11-25T07:12:38.464Z,99.95
2022-11-25T07:15:07.292Z,100.00
2022-11-25T07:17:34.804Z,100.00
2022-11-25T07:20:02.397Z,100.00
2022-11-25T07:22:29.897Z,100.00
2022-11-25T07:24:57.417Z,100.00
2022-11-25T07:27:24.905Z,100.00
2022-11-25T07:30:29.034Z,100.00
2022-11-25T07:32:41.278Z,100.00
2022-11-25T07:35:09.326Z,100.00
2022-11-25T07:37:36.875Z,100.00
2022-11-25T07:40:05.078Z,100.00
2022-11-25T07:42:33.120Z,100.00
2022-11-25T07:45:01.987Z,100.00
2022-11-25T07:47:29.513Z,100.00
2022-11-25T07:49:57.426Z,100.00
2022-11-25T07:52:24.892Z,100.00
2022-11-25T07:54:53.990Z,100.00
2022-11-25T07:57:21.499Z,100.00
2022-11-25T07:59:49.036Z,100.00
2022-11-25T08:02:18.002Z,100.00
2022-11-25T08:04:45.781Z,100.00
2022-11-25T08:07:13.376Z,100.00
2022-11-25T08:09:40.931Z,100.00
2022-11-25T08:12:08.566Z,100.00
2022-11-25T08:14:36.482Z,100.00
2022-11-25T08:17:05.988Z,100.00
2022-11-25T08:19:35.973Z,100.00
2022-11-25T08:22:03.657Z,100.00
2022-11-25T08:24:34.497Z,100.00
2022-11-25T08:27:02.354Z,100.00
2022-11-25T08:29:29.921Z,100.00
2022-11-25T08:31:58.380Z,100.00
2022-11-25T08:34:26.457Z,100.00
2022-11-25T08:36:55.419Z,100.00
2022-11-25T08:42:11.437Z,100.00
2022-11-25T08:44:38.991Z,100.00
2022-11-25T08:47:06.538Z,100.00
2022-11-25T08:49:40.503Z,100.00
2022-11-25T08:52:11.260Z,100.00
2022-11-25T08:54:38.879Z,100.00
2022-11-25T08:57:06.401Z,100.00
2022-11-25T08:59:34.130Z,100.00
2022-11-25T09:02:02.124Z,100.00
2022-11-25T09:04:33.756Z,100.00
2022-11-25T09:07:01.683Z,100.00
2022-11-25T09:09:30.624Z,100.00
2022-11-25T09:11:58.238Z,100.00
2022-11-25T09:14:25.834Z,99.99
2022-11-25T09:16:53.595Z,99.20
2022-11-25T09:19:21.508Z,100.00
2022-11-25T09:21:49.127Z,99.61
2022-11-25T09:24:16.709Z,99.57
2022-11-25T09:26:45.962Z,99.62
2022-11-25T09:29:14.753Z,99.11
2022-11-25T09:31:42.552Z,100.00
2022-11-25T09:34:10.405Z,99.49
2022-11-25T09:36:38.511Z,99.52
2022-11-25T09:39:06.287Z,100.00
2022-11-25T09:42:07.499Z,100.00
2022-11-25T09:45:05.088Z,100.00
2022-11-25T09:47:45.210Z,100.00
2022-11-25T09:50:18.687Z,99.85
2022-11-25T09:52:54.480Z,99.52
2022-11-25T09:55:24.266Z,99.90
2022-11-25T09:58:00.478Z,99.36
2022-11-25T10:00:33.705Z,99.01
2022-11-25T10:03:05.536Z,99.33
2022-11-25T10:05:36.521Z,98.57
2022-11-25T10:08:10.657Z,98.47
2022-11-25T10:10:42.955Z,98.66
2022-11-25T10:13:18.526Z,98.47
2022-11-25T10:15:48.128Z,98.72
2022-11-25T10:18:21.242Z,98.48
2022-11-25T10:20:51.179Z,98.25
2022-11-25T10:23:27.853Z,98.14
2022-11-25T10:25:58.836Z,97.38
2022-11-25T10:28:32.794Z,97.39
2022-11-25T10:31:02.962Z,96.74
2022-11-25T10:33:33.710Z,97.20
2022-11-25T10:36:06.035Z,97.35
2022-11-25T10:38:41.343Z,96.56
2022-11-25T10:41:10.939Z,96.92
2022-11-25T10:43:39.794Z,97.22
2022-11-25T10:46:12.133Z,96.86
2022-11-25T10:48:50.117Z,96.23
2022-11-25T10:51:33.076Z,95.70
2022-11-25T10:54:18.732Z,96.36
2022-11-25T10:56:54.062Z,96.33
2022-11-25T10:59:28.167Z,96.36
2022-11-25T11:02:14.409Z,96.50
2022-11-25T11:04:52.319Z,96.70
2022-11-25T11:07:19.905Z,96.77
2022-11-25T11:09:48.712Z,95.46
2022-11-25T11:12:21.091Z,95.55
2022-11-25T11:14:50.318Z,95.95
2022-11-25T11:17:31.922Z,95.56
2022-11-25T11:20:14.617Z,95.39
2022-11-25T11:22:47.892Z,95.25
2022-11-25T11:25:27.505Z,94.98
2022-11-25T11:27:55.630Z,94.59
2022-11-25T11:30:26.680Z,94.41
2022-11-25T11:33:03.782Z,92.77
2022-11-25T11:35:49.430Z,93.35
2022-11-25T11:38:27.507Z,93.29
2022-11-25T11:40:58.900Z,93.26
2022-11-25T11:43:51.126Z,93.25
2022-11-25T11:46:31.930Z,93.67
2022-11-25T11:49:06.946Z,92.71
2022-11-25T11:51:41.487Z,92.26
2022-11-25T11:54:12.215Z,92.20
2022-11-25T11:56:41.703Z,92.19
2022-11-25T11:59:59.503Z,92.42
2022-11-25T12:02:37.301Z,92.99
2022-11-25T12:05:14.664Z,92.87
2022-11-25T12:07:48.018Z,92.37
2022-11-25T12:10:23.540Z,93.21
2022-11-25T12:12:54.509Z,93.03
2022-11-25T12:15:36.152Z,92.78
2022-11-25T12:18:12.707Z,92.51
2022-11-25T12:20:45.537Z,92.38
2022-11-25T12:23:17.612Z,91.82
2022-11-25T12:25:46.281Z,91.71
2022-11-25T12:28:18.258Z,91.85
2022-11-25T12:31:01.887Z,91.68
2022-11-25T12:33:41.765Z,91.13
2022-11-25T12:36:11.733Z,91.66
2022-11-25T12:38:43.372Z,91.28
2022-11-25T12:41:20.625Z,91.32
2022-11-25T12:43:51.290Z,91.66
2022-11-25T12:46:24.753Z,91.84
2022-11-25T12:48:54.837Z,91.53
2022-11-25T12:51:47.671Z,91.99
2022-11-25T12:54:29.120Z,91.66
2022-11-25T12:57:16.928Z,91.42
2022-11-25T13:00:17.527Z,91.98
2022-11-25T13:03:27.860Z,91.10
2022-11-25T13:06:02.411Z,91.24
2022-11-25T13:08:46.055Z,90.42
2022-11-25T13:11:36.036Z,90.73
2022-11-25T13:14:07.958Z,90.12
2022-11-25T13:16:36.453Z,90.29
2022-11-25T13:19:11.647Z,90.26
2022-11-25T13:21:57.068Z,90.41
2022-11-25T13:24:35.001Z,89.47
2022-11-25T13:27:05.105Z,89.45
2022-11-25T13:30:09.774Z,89.92
2022-11-25T13:32:40.178Z,89.77
2022-11-25T13:35:35.707Z,90.22
2022-11-25T13:38:31.848Z,89.43
2022-11-25T13:41:00.546Z,90.05
2022-11-25T13:43:28.281Z,89.03
2022-11-25T13:45:56.696Z,89.13
2022-11-25T13:48:25.978Z,89.41
2022-11-25T13:51:15.570Z,89.05
2022-11-25T13:53:51.933Z,89.63
2022-11-25T13:56:28.090Z,89.50
2022-11-25T13:59:36.641Z,89.17
2022-11-25T14:02:32.257Z,88.77
2022-11-25T14:05:05.736Z,88.52
2022-11-25T14:07:40.620Z,88.67
2022-11-25T14:10:26.968Z,89.48
2022-11-25T14:13:03.213Z,89.46
2022-11-25T14:15:34.252Z,88.69
2022-11-25T14:18:51.219Z,89.50
2022-11-25T14:21:27.627Z,88.85
2022-11-25T14:24:08.940Z,88.49
2022-11-25T14:26:55.619Z,88.58
2022-11-25T14:29:26.114Z,88.32
2022-11-25T14:31:57.063Z,88.23
2022-11-25T14:34:28.787Z,88.84
2022-11-25T14:37:04.699Z,89.02
2022-11-25T14:39:35.233Z,88.84
2022-11-25T14:42:07.151Z,88.73
2022-11-25T14:44:39.532Z,88.45
2022-11-25T14:47:08.434Z,88.79
2022-11-25T14:52:43.772Z,89.05
2022-11-25T14:55:12.808Z,89.09
2022-11-25T14:57:45.198Z,89.36
2022-11-25T15:00:15.374Z,88.61
2022-11-25T15:02:54.020Z,89.40
2022-11-25T15:05:23.697Z,89.74
2022-11-25T15:07:58.676Z,89.14
2022-11-25T15:10:39.243Z,89.61
2022-11-25T15:13:13.440Z,89.57
2022-11-25T15:15:41.108Z,89.76
2022-11-25T15:18:11.347Z,89.42
2022-11-25T15:20:38.899Z,90.78
2022-11-25T15:23:07.067Z,90.74
2022-11-25T15:25:34.579Z,91.01
2022-11-25T15:28:02.435Z,91.19
2022-11-25T15:30:31.317Z,91.22
2022-11-25T15:32:59.402Z,91.40
2022-11-25T15:35:28.090Z,91.69
2022-11-25T15:37:55.623Z,92.02
2022-11-25T15:40:36.676Z,91.77
2022-11-25T15:43:07.264Z,92.26
2022-11-25T15:45:39.312Z,91.97
2022-11-25T15:48:15.530Z,92.25
2022-11-25T15:50:43.084Z,92.08
2022-11-25T15:53:25.626Z,92.03
2022-11-25T15:56:00.694Z,92.23
2022-11-25T15:58:28.481Z,92.91
2022-11-25T16:01:08.047Z,93.58
2022-11-25T16:03:36.064Z,93.35
2022-11-25T16:06:04.128Z,93.55
2022-11-25T16:08:34.902Z,93.28
2022-11-25T16:11:15.303Z,93.39
2022-11-25T16:13:42.868Z,93.22
2022-11-25T16:16:25.510Z,93.49
2022-11-25T16:19:15.305Z,93.15
2022-11-25T16:21:45.586Z,93.73
2022-11-25T16:24:20.965Z,93.59
2022-11-25T16:26:52.411Z,94.55
2022-11-25T16:29:21.560Z,94.20
2022-11-25T16:31:50.509Z,94.22
2022-11-25T16:34:20.517Z,94.74
2022-11-25T16:36:48.150Z,94.64
2022-11-25T16:39:15.656Z,94.75
2022-11-25T16:41:45.331Z,94.65
2022-11-25T16:44:18.694Z,94.24
2022-11-25T16:46:46.643Z,94.60
2022-11-25T16:49:16.762Z,93.83
2022-11-25T16:51:44.509Z,94.69
2022-11-25T16:54:12.422Z,94.42
2022-11-25T16:56:41.612Z,94.58
2022-11-25T16:59:12.099Z,94.34
2022-11-25T17:01:39.750Z,94.09
2022-11-25T17:04:08.085Z,93.95
2022-11-25T17:06:37.247Z,94.01
2022-11-25T17:09:05.066Z,93.18
2022-11-25T17:11:35.269Z,93.42
2022-11-25T17:14:05.026Z,93.63
2022-11-25T17:16:32.908Z,93.85
2022-11-25T17:19:01.293Z,94.05
2022-11-25T17:21:29.130Z,93.82
2022-11-25T17:24:02.599Z,94.36
2022-11-25T17:26:36.150Z,94.06
2022-11-25T17:29:05.531Z,93.87
2022-11-25T17:31:33.914Z,94.36
2022-11-25T17:34:01.454Z,94.08
2022-11-25T17:36:28.973Z,94.69
2022-11-25T17:38:57.812Z,94.60
2022-11-25T17:41:26.736Z,94.90
2022-11-25T17:43:54.824Z,94.99
2022-11-25T17:46:24.687Z,94.86
2022-11-25T17:48:52.326Z,94.91
2022-11-25T17:51:19.897Z,94.19
2022-11-25T17:53:48.063Z,94.65
2022-11-25T17:56:24.046Z,94.68
2022-11-25T17:58:52.097Z,94.52
2022-11-25T18:01:20.133Z,94.61
2022-11-25T18:03:49.364Z,94.09
2022-11-25T18:06:16.938Z,94.49
2022-11-25T18:08:44.448Z,94.74
2022-11-25T18:11:16.771Z,94.30
2022-11-25T18:13:47.221Z,94.25
2022-11-25T18:16:16.133Z,93.83
2022-11-25T18:18:43.681Z,92.57
2022-11-25T18:21:12.736Z,92.82
2022-11-25T18:23:40.297Z,92.96
2022-11-25T18:26:11.678Z,94.44
2022-11-25T18:28:39.538Z,95.69
2022-11-25T18:31:08.489Z,96.69
2022-11-25T18:33:36.060Z,97.58
2022-11-25T18:36:03.612Z,97.82
2022-11-25T18:38:31.132Z,97.96
2022-11-25T18:40:59.268Z,98.11
2022-11-25T18:43:27.841Z,98.35
2022-11-25T18:45:55.814Z,98.99
2022-11-25T18:48:26.379Z,99.18
2022-11-25T18:50:57.300Z,99.08
2022-11-25T18:53:25.575Z,99.25
2022-11-25T18:55:53.118Z,99.37
2022-11-25T18:58:22.714Z,99.25
2022-11-25T19:00:51.858Z,99.20
2022-11-25T19:03:21.355Z,99.23
2022-11-25T19:05:51.383Z,99.19
2022-11-25T19:08:19.436Z,99.40
2022-11-25T19:10:51.816Z,99.39
2022-11-25T19:13:23.286Z,99.08
2022-11-25T19:19:57.967Z,99.25
2022-11-25T19:23:01.826Z,99.29
2022-11-25T19:26:07.622Z,98.98
2022-11-25T19:37:33.886Z,98.36
2022-11-25T19:40:13.184Z,97.88
2022-11-25T19:42:57.237Z,98.33
2022-11-25T19:46:02.786Z,98.35
2022-11-25T19:49:05.318Z,96.87
2022-11-25T20:00:02.115Z,97.16
2022-11-25T20:06:56.729Z,97.78
2022-11-25T20:18:22.475Z,98.69
2022-11-25T20:42:13.382Z,97.40
2022-11-25T20:45:01.238Z,97.38
2022-11-25T21:01:32.389Z,97.33
2022-11-25T21:04:49.497Z,97.89
2022-11-25T21:11:42.838Z,97.23
2022-11-25T21:28:56.763Z,97.04
2022-11-25T21:31:55.635Z,97.11
2022-11-25T21:42:37.200Z,96.66
2022-11-25T22:10:36.411Z,96.11
2022-11-25T22:36:35.078Z,96.38
2022-11-25T23:03:43.502Z,96.46
2022-11-25T23:06:11.907Z,96.37
2022-11-25T23:08:39.704Z,96.47
2022-11-25T23:11:07.833Z,96.44
2022-11-25T23:13:35.324Z,96.93
2022-11-25T23:16:05.504Z,97.12
2022-11-25T23:18:38.247Z,97.49
2022-11-25T23:21:06.733Z,97.85
2022-11-25T23:23:34.229Z,97.77
2022-11-25T23:26:01.784Z,98.69
2022-11-25T23:28:29.336Z,98.01
2022-11-25T23:30:58.261Z,97.79
2022-11-25T23:33:29.973Z,97.88
2022-11-25T23:35:58.456Z,97.86
2022-11-25T23:38:27.932Z,98.09
2022-11-25T23:40:55.532Z,98.11
2022-11-25T23:43:23.025Z,97.84
2022-11-25T23:45:53.800Z,97.36
2022-11-25T23:48:24.290Z,97.60
2022-11-25T23:50:55.120Z,97.45
2022-11-25T23:53:25.367Z,98.00
2022-11-25T23:55:53.105Z,97.65
2022-11-25T23:58:22.071Z,97.26
